Time;durP1;ratioP1;P1;durP2;ratioP2;P2;SDS_P1;SDS_P2;PMS_P1;PMS_P2;Temp;Humidity;BMP_temperature;BMP_pressure;BME280_temperature;BME280_humidity;BME280_pressure;Samples;Min_cycle;Max_cycle;Signal;HPM_P1;HPM_P2
2022/06/07 00:02:09;;;;;;;3.25;2.00;;;18.30;99.90;;;;;;4930376;29;20063;-73
2022/06/07 00:04:35;;;;;;;2.22;1.70;;;;;;;;;;4938310;29;20559;-73
2022/06/07 00:07:01;;;;;;;12.13;3.27;;;;;;;;;;4933158;28;20095;-73
2022/06/07 00:09:27;;;;;;;1.75;1.60;;;;;;;;;;4931024;29;20260;-73
2022/06/07 00:11:53;;;;;;;1.67;1.58;;;;;;;;;;4930246;29;20047;-73
2022/06/07 00:14:19;;;;;;;1.80;1.50;;;;;;;;;;4929866;29;20047;-73
2022/06/07 00:16:46;;;;;;;3.45;1.80;;;18.10;97.10;;;;;;4931097;29;20039;-74
2022/06/07 00:19:11;;;;;;;1.95;1.80;;;18.10;99.90;;;;;;4934693;29;20039;-72
2022/06/07 00:21:38;;;;;;;2.03;1.55;;;;;;;;;;4936155;28;20035;-73
2022/06/07 00:24:04;;;;;;;2.03;1.83;;;;;;;;;;4933297;28;20386;-73
2022/06/07 00:26:31;;;;;;;1.52;1.42;;;;;;;;;;4941083;29;20070;-73
2022/06/07 00:28:57;;;;;;;1.60;1.50;;;;;;;;;;4938314;29;20043;-73
2022/06/07 00:31:23;;;;;;;2.63;2.35;;;;;;;;;;4929449;29;20038;-73
2022/06/07 00:33:49;;;;;;;1.55;1.45;;;;;;;;;;4929602;29;20058;-73
2022/06/07 00:36:16;;;;;;;3.58;3.17;;;17.80;97.70;;;;;;4929697;29;20067;-73
2022/06/07 00:38:43;;;;;;;1.92;1.83;;;;;;;;;;4931755;29;20116;-73
2022/06/07 00:41:09;;;;;;;3.80;2.03;;;;;;;;;;4940607;29;20027;-73
2022/06/07 00:43:36;;;;;;;1.08;1.08;;;;;;;;;;4931167;29;20523;-73
2022/06/07 00:46:09;;;;;;;3.92;1.52;;;17.80;97.30;;;;;;4929180;29;20047;-73
2022/06/07 00:48:36;;;;;;;1.52;1.42;;;17.90;97.20;;;;;;4929416;29;20580;-73
2022/06/07 00:51:11;;;;;;;2.47;2.28;;;17.50;97.70;;;;;;4924516;29;20576;-73
2022/06/07 00:53:37;;;;;;;1.98;1.63;;;;;;;;;;4932593;29;20046;-73
2022/06/07 00:56:03;;;;;;;2.15;1.95;;;;;;;;;;4929831;29;20027;-73
2022/06/07 00:58:30;;;;;;;1.77;1.67;;;;;;;;;;4930179;29;20472;-74
2022/06/07 01:00:56;;;;;;;2.58;1.70;;;;;;;;;;4929034;29;20504;-73
2022/06/07 01:03:23;;;;;;;3.97;2.00;;;;;;;;;;4928634;29;20028;-72
2022/06/07 01:05:50;;;;;;;1.80;1.65;;;16.90;99.90;;;;;;4929219;29;20078;-73
2022/06/07 01:11:01;;;;;;;2.25;2.05;;;;;;;;;;4934860;29;20141;-74
2022/06/07 01:13:32;;;;;;;1.92;1.83;;;16.60;99.10;;;;;;4935087;29;20467;-73
2022/06/07 01:16:08;;;;;;;3.08;2.30;;;16.70;98.90;;;;;;4930353;29;20051;-73
2022/06/07 01:18:35;;;;;;;2.63;2.22;;;;;;;;;;4929380;29;20032;-73
2022/06/07 01:21:09;;;;;;;2.05;1.75;;;16.80;98.80;;;;;;4931793;29;20098;-73
2022/06/07 01:23:35;;;;;;;3.25;2.40;;;;;;;;;;4939700;29;20087;-73
2022/06/07 01:26:01;;;;;;;2.85;2.50;;;;;;;;;;4942498;29;20043;-73
2022/06/07 01:28:27;;;;;;;2.28;2.13;;;;;;;;;;4929640;29;20028;-73
2022/06/07 01:30:57;;;;;;;2.90;2.70;;;;;;;;;;4929134;29;20477;-73
2022/06/07 01:33:22;;;;;;;2.63;2.17;;;16.70;99.90;;;;;;4929019;29;20090;-73
2022/06/07 01:35:49;;;;;;;2.20;2.10;;;;;;;;;;4928807;29;20036;-74
2022/06/07 01:38:15;;;;;;;3.10;2.78;;;;;;;;;;4927857;29;20493;-73
2022/06/07 01:43:25;;;;;;;6.78;2.50;;;;;;;;;;4929295;29;20062;-73
2022/06/07 01:45:51;;;;;;;2.15;2.03;;;;;;;;;;4930986;29;20481;-72
2022/06/07 01:48:17;;;;;;;2.88;2.00;;;;;;;;;;4931447;28;20039;-73
2022/06/07 01:50:43;;;;;;;2.88;1.88;;;;;;;;;;4929021;29;20032;-73
2022/06/07 01:53:09;;;;;;;2.67;2.28;;;;;;;;;;4928936;29;20087;-73
2022/06/07 01:55:35;;;;;;;2.58;2.20;;;;;;;;;;4929621;29;20533;-74
2022/06/07 01:58:01;;;;;;;3.75;2.42;;;;;;;;;;4931436;29;20039;-73
2022/06/07 02:00:27;;;;;;;4.75;4.07;;;;;;;;;;4933396;29;20028;-73
2022/06/07 02:02:53;;;;;;;3.88;2.47;;;;;;;;;;4929052;29;20036;-73
2022/06/07 02:05:19;;;;;;;5.30;2.20;;;;;;;;;;4938412;29;20110;-73
2022/06/07 02:07:45;;;;;;;2.88;2.53;;;;;;;;;;4932737;29;20450;-73
2022/06/07 02:10:11;;;;;;;4.22;2.95;;;;;;;;;;4928983;29;20064;-73
2022/06/07 02:12:37;;;;;;;2.22;2.03;;;;;;;;;;4928861;29;20027;-73
2022/06/07 02:15:03;;;;;;;2.55;2.35;;;;;;;;;;4932386;29;20908;-73
2022/06/07 02:17:29;;;;;;;2.35;2.00;;;;;;;;;;4932212;29;20035;-73
2022/06/07 02:19:56;;;;;;;2.70;2.45;;;;;;;;;;4933830;29;20031;-73
2022/06/07 02:22:22;;;;;;;2.17;2.05;;;;;;;;;;4931952;29;20035;-73
2022/06/07 02:24:48;;;;;;;3.20;2.50;;;;;;;;;;4933945;29;20565;-73
2022/06/07 02:27:16;;;;;;;2.55;2.33;;;;;;;;;;4925897;28;20040;-73
2022/06/07 02:29:44;;;;;;;3.75;2.78;;;;;;;;;;4932027;29;20020;-72
2022/06/07 02:32:16;;;;;;;2.85;1.77;;;;;;;;;;4932234;29;20028;-72
2022/06/07 02:34:42;;;;;;;4.15;2.90;;;;;;;;;;4931614;29;20095;-73
2022/06/07 02:37:09;;;;;;;4.03;2.27;;;;;;;;;;4935592;29;20034;-74
2022/06/07 02:39:36;;;;;;;3.45;2.53;;;;;;;;;;4937475;28;20043;-73
2022/06/07 02:42:03;;;;;;;2.47;2.28;;;;;;;;;;4921136;29;20444;-73
2022/06/07 02:44:29;;;;;;;2.25;2.13;;;;;;;;;;4932060;29;20028;-73
2022/06/07 02:46:55;;;;;;;4.00;2.53;;;;;;;;;;4937663;29;20416;-73
2022/06/07 02:49:21;;;;;;;2.90;2.15;;;;;;;;;;4931880;29;20031;-73
2022/06/07 02:51:47;;;;;;;2.83;2.55;;;;;;;;;;4931499;29;20043;-72
2022/06/07 02:54:13;;;;;;;2.65;2.45;;;;;;;;;;4931409;29;20040;-73
2022/06/07 02:56:39;;;;;;;2.35;2.15;;;;;;;;;;4931384;29;20035;-72
2022/06/07 02:59:05;;;;;;;2.42;2.20;;;;;;;;;;4939826;29;20019;-73
2022/06/07 03:01:31;;;;;;;4.43;2.50;;;;;;;;;;4931558;29;20027;-73
2022/06/07 03:03:58;;;;;;;2.53;2.33;;;;;;;;;;4931963;29;20057;-72
2022/06/07 03:06:24;;;;;;;2.65;2.45;;;;;;;;;;4939154;28;20039;-73
2022/06/07 03:08:50;;;;;;;2.33;1.95;;;;;;;;;;4931310;29;20059;-73
2022/06/07 03:11:16;;;;;;;3.28;2.55;;;;;;;;;;4931182;29;20130;-73
2022/06/07 03:13:42;;;;;;;2.30;2.10;;;15.70;99.90;;;;;;4932168;29;20031;-73
2022/06/07 03:16:08;;;;;;;2.63;2.42;;;;;;;;;;4931266;29;20058;-73
2022/06/07 03:18:34;;;;;;;13.80;3.47;;;15.40;99.90;;;;;;4930732;29;20042;-74
2022/06/07 03:21:00;;;;;;;4.18;2.95;;;;;;;;;;4931532;29;20065;-73
2022/06/07 03:23:26;;;;;;;3.22;2.92;;;;;;;;;;4931007;29;20043;-74
2022/06/07 03:25:52;;;;;;;2.10;2.00;;;;;;;;;;4931083;29;20091;-73
2022/06/07 03:28:18;;;;;;;2.35;2.22;;;;;;;;;;4930661;29;20039;-73
2022/06/07 03:30:44;;;;;;;4.63;2.38;;;;;;;;;;4930773;29;20030;-73
2022/06/07 03:33:11;;;;;;;2.00;1.90;;;;;;;;;;4930820;29;20051;-73
2022/06/07 03:35:39;;;;;;;3.72;2.35;;;;;;;;;;4930899;29;20382;-72
2022/06/07 03:38:05;;;;;;;9.63;3.88;;;;;;;;;;4941684;29;20373;-73
2022/06/07 03:40:43;;;;;;;1.90;1.80;;;;;;;;;;4930209;29;20028;-73
2022/06/07 03:43:09;;;;;;;3.00;2.53;;;;;;;;;;4934414;29;20036;-73
2022/06/07 03:45:35;;;;;;;2.75;2.20;;;;;;;;;;4929490;29;20032;-73
2022/06/07 03:48:01;;;;;;;2.95;2.65;;;;;;;;;;4940935;29;20044;-73
2022/06/07 03:50:27;;;;;;;2.85;2.63;;;;;;;;;;4932816;29;20035;-73
2022/06/07 03:52:53;;;;;;;3.38;2.15;;;;;;;;;;4941474;29;20090;-73
2022/06/07 03:55:19;;;;;;;3.58;2.15;;;;;;;;;;4930871;28;20397;-73
2022/06/07 03:57:45;;;;;;;2.10;2.00;;;;;;;;;;4930288;29;20031;-75
2022/06/07 04:00:11;;;;;;;2.08;1.70;;;15.80;98.20;;;;;;4930198;29;20039;-72
2022/06/07 04:02:37;;;;;;;2.25;2.05;;;;;;;;;;4930382;29;20102;-73
2022/06/07 04:05:03;;;;;;;2.45;2.15;;;;;;;;;;4932203;29;20132;-73
2022/06/07 04:10:14;;;;;;;1.60;1.42;;;15.50;99.90;;;;;;4931393;29;20035;-73
2022/06/07 04:12:40;;;;;;;3.00;2.70;;;;;;;;;;4930393;29;20028;-73
2022/06/07 04:15:06;;;;;;;2.35;2.15;;;15.50;99.90;;;;;;4940493;28;20058;-73
2022/06/07 04:17:32;;;;;;;3.05;1.83;;;;;;;;;;4930129;29;20503;-73
2022/06/07 04:19:58;;;;;;;2.60;2.40;;;;;;;;;;4931274;29;20056;-73
2022/06/07 04:22:24;;;;;;;2.03;1.92;;;;;;;;;;4935198;29;20039;-73
2022/06/07 04:24:51;;;;;;;3.47;2.80;;;;;;;;;;4934565;28;20088;-73
2022/06/07 04:27:17;;;;;;;4.68;2.90;;;;;;;;;;4930270;29;20048;-73
2022/06/07 04:29:42;;;;;;;3.22;2.20;;;;;;;;;;4940413;29;20103;-74
2022/06/07 04:32:11;;;;;;;3.15;1.85;;;;;;;;;;4929617;29;20752;-73
2022/06/07 04:34:37;;;;;;;3.08;2.25;;;;;;;;;;4930549;29;20024;-72
2022/06/07 04:37:05;;;;;;;3.60;2.13;;;;;;;;;;4931079;29;20058;-72
2022/06/07 04:39:31;;;;;;;4.65;2.20;;;;;;;;;;4929281;29;20028;-73
2022/06/07 04:41:57;;;;;;;2.42;1.77;;;;;;;;;;4929716;29;20042;-72
2022/06/07 04:44:23;;;;;;;4.03;1.92;;;;;;;;;;4940231;29;20078;-72
2022/06/07 04:46:49;;;;;;;2.25;1.80;;;;;;;;;;4932235;29;20043;-73
2022/06/07 04:49:16;;;;;;;2.53;2.13;;;;;;;;;;4929445;29;20039;-73
2022/06/07 04:51:41;;;;;;;4.07;2.80;;;;;;;;;;4929107;29;20611;-72
2022/06/07 04:54:09;;;;;;;2.70;2.42;;;15.60;98.60;;;;;;4928384;29;20020;-72
2022/06/07 04:56:35;;;;;;;2.58;2.35;;;;;;;;;;4928028;29;25356;-73
2022/06/07 04:59:03;;;;;;;2.38;2.00;;;15.60;99.10;;;;;;4941303;29;20050;-73
2022/06/07 05:01:35;;;;;;;6.85;2.38;;;15.70;98.90;;;;;;4929762;29;20055;-72
2022/06/07 05:04:01;;;;;;;2.67;2.38;;;;;;;;;;4930289;29;20086;-73
2022/06/07 05:06:29;;;;;;;2.72;2.50;;;;;;;;;;4929453;29;20031;-72
2022/06/07 05:08:55;;;;;;;;;;;;;;;;;;4939944;29;20035;-73
2022/06/07 05:11:21;;;;;;;2.85;2.00;;;;;;;;;;4929632;29;19918;-73
2022/06/07 05:13:47;;;;;;;3.47;2.40;;;;;;;;;;4933710;29;20035;-73
2022/06/07 05:16:13;;;;;;;3.83;2.50;;;;;;;;;;4933125;29;20547;-73
2022/06/07 05:18:39;;;;;;;23.73;2.63;;;;;;;;;;4929019;29;20031;-73
2022/06/07 05:21:06;;;;;;;3.42;2.08;;;;;;;;;;4928173;29;20119;-73
2022/06/07 05:23:32;;;;;;;3.55;1.85;;;;;;;;;;4928764;29;20038;-73
2022/06/07 05:26:03;;;;;;;3.47;2.95;;;;;;;;;;4928627;29;20024;-73
2022/06/07 05:28:29;;;;;;;3.60;2.80;;;;;;;;;;4924297;29;20031;-79
2022/06/07 05:30:55;;;;;;;4.63;2.85;;;;;;;;;;4926694;29;20401;-78
2022/06/07 05:33:21;;;;;;;3.80;2.90;;;;;;;;;;4925541;29;20032;-79
2022/06/07 05:35:47;;;;;;;5.93;2.88;;;;;;;;;;4924750;29;20032;-79
2022/06/07 05:38:13;;;;;;;3.55;2.60;;;;;;;;;;4927528;29;20034;-79
2022/06/07 05:40:39;;;;;;;3.92;3.35;;;;;;;;;;4928542;29;20421;-78
2022/06/07 05:43:05;;;;;;;5.30;3.38;;;;;;;;;;4923941;29;20047;-78
2022/06/07 05:45:31;;;;;;;6.28;3.20;;;;;;;;;;4924399;29;20031;-78
2022/06/07 05:47:57;;;;;;;5.10;4.40;;;;;;;;;;4928171;29;20040;-78
2022/06/07 05:50:25;;;;;;;8.90;3.65;;;;;;;;;;4932210;29;20126;-76
2022/06/07 05:52:51;;;;;;;;;;;;;;;;;;4933097;29;20400;-75
2022/06/07 05:55:17;;;;;;;4.90;3.03;;;;;;;;;;4929881;28;19915;-80
2022/06/07 05:57:49;;;;;;;4.43;3.58;;;;;;;;;;4926363;29;20050;-79
2022/06/07 06:00:19;;;;;;;5.32;4.15;;;18.30;95.90;;;;;;4931289;28;20290;-78
2022/06/07 06:02:45;;;;;;;7.50;3.72;;;;;;;;;;4939243;28;20050;-86
2022/06/07 06:05:11;;;;;;;8.35;3.15;;;;;;;;;;4939540;29;20028;-86
2022/06/07 06:10:19;;;;;;;4.18;3.22;;;;;;;;;;4935900;29;20077;-87
2022/06/07 06:10:24;;;;;;;5.80;3.00;;;18.90;95.10;;;;;;4930140;29;20548;-86
2022/06/07 06:12:50;;;;;;;2.88;2.30;;;;;;;;;;4926521;29;20040;-86
2022/06/07 06:15:17;;;;;;;3.90;3.03;;;;;;;;;;4930648;29;20055;-85
2022/06/07 06:17:43;;;;;;;8.07;3.97;;;;;;;;;;4942037;29;20024;-86
2022/06/07 06:20:09;;;;;;;4.95;3.72;;;19.40;95.10;;;;;;4929327;29;20035;-85
2022/06/07 06:22:36;;;;;;;3.20;2.85;;;;;;;;;;4935721;29;20027;-86
2022/06/07 06:25:02;;;;;;;3.75;2.97;;;;;;;;;;4934780;28;20048;-86
2022/06/07 06:27:30;;;;;;;2.45;1.75;;;;;;;;;;4927801;29;20718;-73
2022/06/07 06:29:56;;;;;;;;;;;;;;;;;;4938137;29;20028;-75
2022/06/07 06:32:22;;;;;;;4.13;2.33;;;;;;;;;;4926479;28;19926;-76
2022/06/07 06:34:48;;;;;;;2.28;1.98;;;;;;;;;;4925930;29;20051;-75
2022/06/07 06:37:14;;;;;;;3.80;2.30;;;21.40;95.10;;;;;;4933661;29;20413;-82
2022/06/07 06:39:40;;;;;;;3.67;1.58;;;;;;;;;;4928150;28;20057;-83
2022/06/07 06:42:06;;;;;;;2.77;1.03;;;;;;;;;;4928265;29;20501;-82
2022/06/07 06:44:32;;;;;;;1.15;0.90;;;;;;;;;;4933778;29;20107;-82
2022/06/07 06:47:00;;;;;;;2.30;1.00;;;;;;;;;;4935520;29;20493;-82
2022/06/07 06:49:27;;;;;;;1.67;1.30;;;;;;;;;;4932552;29;20118;-83
2022/06/07 06:51:53;;;;;;;2.25;1.30;;;;;;;;;;4928387;29;20028;-81
2022/06/07 06:54:19;;;;;;;3.93;1.60;;;;;;;;;;4930287;29;20036;-82
2022/06/07 06:56:47;;;;;;;3.42;1.85;;;;;;;;;;4930146;29;20863;-82
2022/06/07 06:59:14;;;;;;;2.55;1.60;;;;;;;;;;4925887;29;20035;-73
2022/06/07 07:01:41;;;;;;;5.10;1.83;;;22.80;81.30;;;;;;4930563;29;20070;-72
2022/06/07 07:04:08;;;;;;;1.48;1.38;;;;;;;;;;4926419;29;20456;-72
2022/06/07 07:06:35;;;;;;;1.30;0.85;;;;;;;;;;4931422;28;20048;-71
2022/06/07 07:09:01;;;;;;;1.73;0.80;;;;;;;;;;4931700;29;20048;-72
2022/06/07 07:11:35;;;;;;;1.55;0.90;;;27.30;65.80;;;;;;4927966;29;20044;-71
2022/06/07 07:14:01;;;;;;;1.15;0.75;;;;;;;;;;4928992;29;20076;-71
2022/06/07 07:16:27;;;;;;;;;;;;;;;;;;4931409;29;20043;-72
2022/06/07 07:18:53;;;;;;;1.45;1.35;;;;;;;;;;4925853;29;19946;-73
2022/06/07 07:21:28;;;;;;;0.65;0.40;;;32.50;58.50;;;;;;4930073;29;20110;-70
2022/06/07 07:23:55;;;;;;;;;;;33.30;47.70;;;;;;4930845;28;20051;-71
2022/06/07 07:26:24;;;;;;;1.77;0.65;;;32.80;46.90;;;;;;4930906;29;19969;-70
2022/06/07 07:28:52;;;;;;;2.72;2.10;;;33.30;45.30;;;;;;4928958;29;20028;-71
2022/06/07 07:31:22;;;;;;;0.32;0.30;;;33.40;49.80;;;;;;4925855;29;20020;-71
2022/06/07 07:33:48;;;;;;;0.65;0.40;;;;;;;;;;4925128;29;20040;-71
2022/06/07 07:36:14;;;;;;;;;;;32.60;45.00;;;;;;4926364;29;20035;-71
2022/06/07 07:38:41;;;;;;;2.30;0.32;;;;;;;;;;4931449;29;19942;-71
2022/06/07 07:41:23;;;;;;;;;;;29.40;49.10;;;;;;4930492;29;20134;-71
2022/06/07 07:43:50;;;;;;;6.10;0.95;;;;;;;;;;4929743;28;19910;-71
2022/06/07 07:46:16;;;;;;;;;;;;;;;;;;4925821;29;20091;-72
2022/06/07 07:48:42;;;;;;;1.42;0.70;;;25.80;56.70;;;;;;4927590;28;20363;-71
2022/06/07 07:51:13;;;;;;;0.97;0.60;;;;;;;;;;4928951;29;20127;-71
2022/06/07 07:53:39;;;;;;;2.55;0.82;;;24.60;70.50;;;;;;4928248;29;20504;-71
2022/06/07 07:56:07;;;;;;;5.43;1.17;;;25.80;58.30;;;;;;4935905;29;20567;-71
2022/06/07 07:58:33;;;;;;;2.25;0.35;;;;;;;;;;4936425;29;20443;-70
2022/06/07 08:00:59;;;;;;;1.20;0.60;;;;;;;;;;4927168;28;21496;-71
2022/06/07 08:03:26;;;;;;;1.63;0.93;;;;;;;;;;4930918;28;20040;-71
2022/06/07 08:05:52;;;;;;;0.50;0.45;;;29.60;63.40;;;;;;4927770;29;20035;-70
2022/06/07 08:08:18;;;;;;;0.73;0.30;;;;;;;;;;4928518;29;20122;-71
2022/06/07 08:10:43;;;;;;;;;;;32.00;44.60;;;;;;4930001;29;20034;-71
2022/06/07 08:13:09;;;;;;;0.40;0.28;;;33.20;54.20;;;;;;4928507;29;20005;-70
2022/06/07 08:15:35;;;;;;;0.43;0.15;;;33.20;46.00;;;;;;4924746;29;20044;-71
2022/06/07 08:18:03;;;;;;;1.38;0.43;;;33.80;47.80;;;;;;4926831;29;20038;-71
2022/06/07 08:20:32;;;;;;;3.80;0.30;;;34.30;40.10;;;;;;4928643;29;20637;-70
2022/06/07 08:22:58;;;;;;;0.80;0.30;;;;;;;;;;4926064;29;20055;-70
2022/06/07 08:25:24;;;;;;;0.22;0.10;;;;;;;;;;4925626;29;20024;-71
2022/06/07 08:27:49;;;;;;;;;;;33.80;36.60;;;;;;4924387;29;20043;-71
2022/06/07 08:30:16;;;;;;;0.15;0.08;;;33.10;36.00;;;;;;4928448;29;19990;-71
2022/06/07 08:32:42;;;;;;;1.88;0.57;;;;;;;;;;4938767;29;20032;-72
2022/06/07 08:37:58;;;;;;;0.10;0.10;;;;;;;;;;4929496;29;20611;-72
2022/06/07 08:40:34;;;;;;;0.40;0.10;;;35.30;44.60;;;;;;4927208;29;20031;-71
2022/06/07 08:43:07;;;;;;;0.20;0.10;;;35.90;33.30;;;;;;4923641;29;20040;-72
2022/06/07 08:45:38;;;;;;;0.30;0.10;;;36.50;32.50;;;;;;4923235;29;20031;-71
2022/06/07 08:48:26;;;;;;;0.80;0.28;;;36.80;30.60;;;;;;4938306;29;20043;-71
2022/06/07 08:51:14;;;;;;;0.47;0.20;;;37.10;29.20;;;;;;4924307;29;20035;-70
2022/06/07 08:53:45;;;;;;;0.35;0.10;;;36.60;30.40;;;;;;4928475;29;20506;-71
2022/06/07 08:56:17;;;;;;;2.08;0.10;;;36.50;29.90;;;;;;4929556;29;20031;-70
2022/06/07 08:58:49;;;;;;;3.33;0.13;;;36.20;30.10;;;;;;4927326;29;20020;-71
2022/06/07 09:01:14;;;;;;;0.50;0.10;;;;;;;;;;4927785;29;20783;-70
2022/06/07 09:03:52;;;;;;;;;;;36.30;30.80;;;;;;4922267;29;20035;-71
2022/06/07 09:06:22;;;;;;;0.00;0.00;;;;;;;;;;4925191;29;20427;-72
2022/06/07 09:08:51;;;;;;;0.55;0.40;;;;;;;;;;4927612;29;20039;-72
2022/06/07 09:14:20;;;;;;;0.10;0.05;;;35.10;31.30;;;;;;4926010;29;20043;-71
2022/06/07 09:16:46;;;;;;;0.13;0.10;;;;;;;;;;4943785;28;20106;-71
2022/06/07 09:19:21;;;;;;;0.98;0.55;;;35.90;30.60;;;;;;4923256;29;20539;-72
2022/06/07 09:21:49;;;;;;;1.70;0.40;;;;;;;;;;4926602;29;20038;-71
2022/06/07 09:24:40;;;;;;;0.55;0.30;;;34.90;30.90;;;;;;4921362;29;20036;-71
2022/06/07 09:27:19;;;;;;;0.63;0.20;;;33.90;30.70;;;;;;4927109;29;20075;-71
2022/06/07 09:29:53;;;;;;;1.08;0.40;;;;;;;;;;4926771;29;20062;-71
2022/06/07 09:32:22;;;;;;;0.50;0.20;;;;;;;;;;4927486;29;20071;-72
2022/06/07 09:34:50;;;;;;;0.25;0.15;;;;;;;;;;4926791;29;20528;-71
2022/06/07 09:37:26;;;;;;;0.65;0.20;;;34.10;31.50;;;;;;4924152;29;20031;-69
2022/06/07 09:40:00;;;;;;;1.25;0.10;;;35.30;31.70;;;;;;4925130;29;20031;-78
2022/06/07 09:42:29;;;;;;;1.33;0.35;;;34.80;31.70;;;;;;4926653;29;20040;-73
2022/06/07 09:44:55;;;;;;;0.30;0.10;;;;;;;;;;4938449;29;20028;-74
2022/06/07 09:47:25;;;;;;;0.15;0.10;;;34.20;30.00;;;;;;4927165;29;20066;-72
2022/06/07 09:50:20;;;;;;;0.13;0.10;;;;;;;;;;4933742;29;20024;-71
2022/06/07 09:52:52;;;;;;;0.63;0.22;;;33.90;42.20;;;;;;4929699;29;20047;-72
2022/06/07 09:55:23;;;;;;;0.20;0.05;;;34.20;31.90;;;;;;4922567;29;20583;-81
2022/06/07 09:58:04;;;;;;;1.15;0.30;;;33.30;32.10;;;;;;4924063;29;20024;-81
2022/06/07 10:00:41;;;;;;;3.90;0.25;;;33.60;31.50;;;;;;4932138;28;20032;-81
2022/06/07 10:03:19;;;;;;;0.95;0.20;;;33.80;30.70;;;;;;4927781;29;20110;-81
2022/06/07 10:05:56;;;;;;;0.32;0.17;;;34.00;31.00;;;;;;4938050;29;20111;-80
2022/06/07 10:08:22;;;;;;;0.22;0.05;;;;;;;;;;4925883;29;20043;-80
2022/06/07 10:10:56;;;;;;;0.43;0.20;;;34.30;30.40;;;;;;4924200;29;20024;-79
2022/06/07 10:13:22;;;;;;;0.60;0.20;;;;;;;;;;4940545;28;20059;-80
2022/06/07 10:16:22;;;;;;;6.15;0.20;;;34.70;31.70;;;;;;4922509;29;20410;-82
2022/06/07 10:19:02;;;;;;;0.20;0.10;;;35.00;31.00;;;;;;4922239;29;20055;-80
2022/06/07 10:21:30;;;;;;;1.33;0.95;;;35.10;30.70;;;;;;4925509;29;20916;-81
2022/06/07 10:24:37;;;;;;;0.98;0.10;;;34.40;31.00;;;;;;4930134;29;20024;-80
2022/06/07 10:27:04;;;;;;;1.85;0.13;;;;;;;;;;4937804;29;20122;-80
2022/06/07 10:29:49;;;;;;;0.20;0.20;;;;;;;;;;4934213;29;20060;-80
2022/06/07 10:32:33;;;;;;;2.80;0.20;;;34.10;31.30;;;;;;4933240;29;20075;-80
2022/06/07 10:35:23;;;;;;;0.85;0.10;;;33.60;29.80;;;;;;4921607;29;20051;-80
2022/06/07 10:38:03;;;;;;;0.45;0.08;;;33.70;31.10;;;;;;4925397;29;20465;-80
2022/06/07 10:40:46;;;;;;;0.43;0.20;;;32.90;30.30;;;;;;4935634;29;20118;-80
2022/06/07 10:43:26;;;;;;;0.43;0.20;;;31.70;32.50;;;;;;4930313;29;20517;-82
2022/06/07 10:45:54;;;;;;;0.35;0.20;;;31.30;32.50;;;;;;4926274;29;20031;-82
2022/06/07 10:48:38;;;;;;;0.30;0.20;;;31.70;34.50;;;;;;4930086;29;20051;-83
2022/06/07 10:54:04;;;;;;;0.70;0.20;;;;;;;;;;4925914;29;20508;-82
2022/06/07 10:56:35;;;;;;;0.40;0.30;;;32.30;31.90;;;;;;4940619;29;20032;-81
2022/06/07 10:59:02;;;;;;;0.38;0.20;;;;;;;;;;4927696;29;20094;-77
2022/06/07 11:01:44;;;;;;;0.40;0.20;;;29.90;34.50;;;;;;4929790;29;20119;-78
2022/06/07 11:09:58;;;;;;;0.10;0.10;;;30.20;34.80;;;;;;4935089;29;20039;-79
2022/06/07 11:12:32;;;;;;;1.00;0.43;;;29.50;35.20;;;;;;4933864;28;20340;-79
2022/06/07 11:14:58;;;;;;;0.30;0.20;;;;;;;;;;4932674;29;20051;-84
2022/06/07 11:17:34;;;;;;;0.27;0.20;;;29.10;37.50;;;;;;4940714;29;20031;-85
2022/06/07 11:20:09;;;;;;;0.85;0.28;;;29.10;35.90;;;;;;4931833;29;20023;-84
2022/06/07 11:22:37;;;;;;;0.15;0.13;;;28.80;36.30;;;;;;4929533;29;20043;-85
2022/06/07 11:25:27;;;;;;;1.13;0.15;;;28.10;37.40;;;;;;4932517;29;20492;-85
2022/06/07 11:27:54;;;;;;;3.47;0.52;;;;;;;;;;4925418;29;20126;-86
2022/06/07 11:30:22;;;;;;;0.60;0.30;;;;;;;;;;4933745;28;20599;-85
2022/06/07 11:32:57;;;;;;;0.57;0.40;;;26.50;39.90;;;;;;4930561;29;20035;-79
2022/06/07 11:35:41;;;;;;;1.05;0.52;;;26.90;40.70;;;;;;4928834;29;20016;-81
2022/06/07 11:38:21;;;;;;;0.70;0.30;;;;;;;;;;4954078;28;20163;-81
2022/06/07 11:40:48;;;;;;;1.88;0.35;;;;;;;;;;4937314;29;20062;-80
2022/06/07 11:43:32;;;;;;;0.20;0.20;;;;;;;;;;4930014;28;20110;-79
2022/06/07 11:45:59;;;;;;;1.83;0.32;;;;;;;;;;4934221;29;20032;-76
2022/06/07 11:48:36;;;;;;;1.35;0.43;;;;;;;;;;4928060;28;20052;-77
2022/06/07 11:51:13;;;;;;;0.25;0.20;;;;;;;;;;4928327;29;20032;-78
2022/06/07 11:53:52;;;;;;;0.95;0.43;;;26.90;40.00;;;;;;4939607;29;20036;-77
2022/06/07 11:56:21;;;;;;;2.38;0.45;;;;;;;;;;4926264;29;20020;-78
2022/06/07 11:59:10;;;;;;;2.22;0.30;;;;;;;;;;4933637;29;20035;-78
2022/06/07 12:01:44;;;;;;;0.77;0.40;;;26.30;41.70;;;;;;4913684;29;20058;-78
2022/06/07 12:04:28;;;;;;;0.40;0.20;;;26.50;46.10;;;;;;4903336;29;20056;-75
2022/06/07 12:06:56;;;;;;;0.40;0.30;;;;;;;;;;4906985;29;20920;-76
2022/06/07 12:09:22;;;;;;;0.50;0.20;;;;;;;;;;4907156;29;20119;-76
2022/06/07 12:11:48;;;;;;;0.77;0.57;;;;;;;;;;4907280;29;20055;-76
2022/06/07 12:14:24;;;;;;;0.32;0.30;;;27.20;44.80;;;;;;4907079;29;20075;-75
2022/06/07 12:16:50;;;;;;;1.17;0.40;;;;;;;;;;4907353;29;20145;-75
2022/06/07 12:19:36;;;;;;;0.40;0.40;;;;;;;;;;4907655;29;20174;-80
2022/06/07 12:22:12;;;;;;;1.05;0.30;;;;;;;;;;4908382;29;20051;-78
2022/06/07 12:24:45;;;;;;;0.60;0.32;;;;;;;;;;4905032;29;20032;-77
2022/06/07 12:27:28;;;;;;;0.63;0.30;;;27.10;40.90;;;;;;4903663;29;20067;-79
2022/06/07 12:29:55;;;;;;;1.77;0.65;;;;;;;;;;4914215;29;20032;-79
2022/06/07 12:32:31;;;;;;;0.73;0.30;;;;;;;;;;4901610;29;20316;-79
2022/06/07 12:35:27;;;;;;;0.50;0.30;;;;;;;;;;4907682;29;20058;-78
2022/06/07 12:37:56;;;;;;;0.47;0.40;;;;;;;;;;4904703;29;20534;-79
2022/06/07 12:40:22;;;;;;;0.65;0.47;;;;;;;;;;4932691;29;20067;-78
2022/06/07 12:42:49;;;;;;;0.53;0.30;;;;;;;;;;4932567;28;20028;-79
2022/06/07 12:45:23;;;;;;;0.77;0.50;;;;;;;;;;4926983;29;20379;-79
2022/06/07 12:48:16;;;;;;;1.80;0.40;;;26.50;42.50;;;;;;4929786;29;20040;-78
2022/06/07 12:50:43;;;;;;;1.60;0.40;;;;;;;;;;4938690;29;20035;-77
2022/06/07 12:53:27;;;;;;;0.65;0.30;;;26.70;41.50;;;;;;4926759;29;20107;-82
2022/06/07 12:55:58;;;;;;;0.47;0.25;;;;;;;;;;4939521;29;20035;-79
2022/06/07 12:58:25;;;;;;;2.03;0.35;;;;;;;;;;4932213;29;20034;-78
2022/06/07 13:00:51;;;;;;;0.30;0.20;;;;;;;;;;4924898;28;20027;-85
2022/06/07 13:03:26;;;;;;;1.60;0.40;;;;;;;;;;4927115;29;20024;-79
2022/06/07 13:05:58;;;;;;;7.93;0.52;;;26.60;42.50;;;;;;4925681;29;20408;-79
2022/06/07 13:08:26;;;;;;;2.50;0.40;;;;;;;;;;4923899;28;20062;-86
2022/06/07 13:10:52;;;;;;;0.43;0.38;;;;;;;;;;4927261;29;20050;-77
2022/06/07 13:13:25;;;;;;;11.85;1.55;;;26.60;42.10;;;;;;4925266;29;20034;-80
2022/06/07 13:16:12;;;;;;;0.38;0.30;;;;;;;;;;4923570;28;20194;-78
2022/06/07 13:18:42;;;;;;;5.55;0.65;;;;;;;;;;4923634;29;20052;-77
2022/06/07 13:21:27;;;;;;;0.47;0.20;;;;;;;;;;4928078;29;20106;-85
2022/06/07 13:23:55;;;;;;;0.95;0.60;;;;;;;;;;4923306;29;20028;-82
2022/06/07 13:26:23;;;;;;;2.63;0.43;;;;;;;;;;4926476;29;20027;-80
2022/06/07 13:29:16;;;;;;;0.22;0.20;;;26.50;41.50;;;;;;4924083;29;20133;-80
2022/06/07 13:31:42;;;;;;;2.22;0.43;;;;;;;;;;4928689;29;20062;-81
2022/06/07 13:34:28;;;;;;;1.70;0.55;;;26.20;39.20;;;;;;4923138;29;20067;-81
2022/06/07 13:37:09;;;;;;;;;;;26.00;40.30;;;;;;4927879;29;20775;-83
2022/06/07 13:39:37;;;;;;;5.05;0.90;;;;;;;;;;4922964;28;19915;-83
2022/06/07 13:42:12;;;;;;;2.20;0.20;;;26.00;40.00;;;;;;4928783;29;20527;-77
2022/06/07 13:44:40;;;;;;;0.57;0.38;;;;;;;;;;4929984;29;20024;-81
2022/06/07 13:47:19;;;;;;;2.58;0.35;;;;;;;;;;4934626;29;20035;-76
2022/06/07 13:55:49;;;;;;;2.45;0.45;;;25.90;40.30;;;;;;4934231;29;20731;-75
2022/06/07 13:58:17;;;;;;;2.38;0.30;;;25.80;41.40;;;;;;4923213;29;20036;-84
2022/06/07 14:00:43;;;;;;;5.50;0.50;;;;;;;;;;4923498;29;20082;-77
2022/06/07 14:03:19;;;;;;;3.47;0.30;;;25.90;41.20;;;;;;4929231;29;20474;-77
2022/06/07 14:05:46;;;;;;;1.27;0.47;;;25.80;41.40;;;;;;4924624;29;20040;-83
2022/06/07 14:08:15;;;;;;;0.57;0.27;;;;;;;;;;4927552;29;20095;-76
2022/06/07 14:10:42;;;;;;;1.08;0.50;;;25.70;41.10;;;;;;4929398;29;20028;-74
2022/06/07 14:13:08;;;;;;;1.42;0.32;;;;;;;;;;4928589;29;20039;-77
2022/06/07 14:15:35;;;;;;;1.70;0.50;;;;;;;;;;4926450;29;20047;-76
2022/06/07 14:18:06;;;;;;;2.13;0.57;;;;;;;;;;4929703;29;20046;-76
2022/06/07 14:20:35;;;;;;;0.60;0.30;;;;;;;;;;4931176;29;20283;-75
2022/06/07 14:23:01;;;;;;;1.38;0.52;;;;;;;;;;4938180;29;20031;-78
2022/06/07 14:25:30;;;;;;;0.30;0.30;;;;;;;;;;4930347;28;20484;-79
2022/06/07 14:27:56;;;;;;;3.65;1.38;;;;;;;;;;4927413;29;20071;-82
2022/06/07 14:30:23;;;;;;;1.27;0.40;;;25.30;41.20;;;;;;4937249;28;20081;-79
2022/06/07 14:32:52;;;;;;;0.50;0.30;;;25.20;43.10;;;;;;4937315;29;20207;-79
2022/06/07 14:35:25;;;;;;;0.30;0.30;;;25.20;40.20;;;;;;4925643;28;20521;-78
2022/06/07 14:37:54;;;;;;;2.88;0.35;;;;;;;;;;4929417;29;20078;-78
2022/06/07 14:40:23;;;;;;;1.05;0.50;;;25.00;47.00;;;;;;4925578;29;20126;-77
2022/06/07 14:42:50;;;;;;;1.98;0.30;;;;;;;;;;4921936;28;20054;-76
2022/06/07 14:45:18;;;;;;;0.80;0.32;;;24.90;46.00;;;;;;4939716;28;20023;-76
2022/06/07 14:47:47;;;;;;;4.85;0.95;;;25.00;45.20;;;;;;4930344;29;20050;-76